JNB weather

OR Tambo International Airport
Johannesburg, Gauteng, South Africa

Public forecast

Using degrees Celsius for public forecast. Weather courtesy of forecast.io.

METAR (pilot weather report)

Retrieved 2019/02/17 13:30 UTC (0 seconds ago):

FAOR 171330Z 17012KT 140V210 9999 FEW045 24/09 Q1021 NOSIG

TAF (pilot weather forecast)

Forecast is more than 12 hours old.

Retrieved 2019/02/16 00:00 UTC (2 days ago):

TAF FAOR 162200Z 1700/1806 12012KT CAVOK TX26/1713Z TN14/1703Z PROB30 TEMPO 1702/1706 BKN010 BECMG 1712/1714 SCT040 FM180000 09007KT CAVOK PROB30 TEMPO 1800/1804 5000 BR BKN005